createdAt,value
2019-05-14T00:00:23.448Z,2.80
2019-05-14T00:02:53.052Z,3.00
2019-05-14T00:05:22.762Z,3.72
2019-05-14T00:07:52.378Z,3.45
2019-05-14T00:10:22.081Z,3.30
2019-05-14T00:12:51.692Z,2.75
2019-05-14T00:15:21.700Z,3.12
2019-05-14T00:17:52.296Z,2.62
2019-05-14T00:20:23.276Z,4.15
2019-05-14T00:22:52.886Z,3.37
2019-05-14T00:25:22.493Z,3.25
2019-05-14T00:27:52.203Z,3.42
2019-05-14T00:30:22.128Z,3.05
2019-05-14T00:32:52.956Z,2.85
2019-05-14T00:35:22.562Z,3.33
2019-05-14T00:37:52.275Z,3.20
2019-05-14T00:40:22.138Z,3.70
2019-05-14T00:42:53.414Z,3.72
2019-05-14T00:45:23.144Z,3.60
2019-05-14T00:47:52.762Z,4.08
2019-05-14T00:50:22.564Z,4.00
2019-05-14T00:52:52.172Z,3.67
2019-05-14T00:55:22.341Z,3.87
2019-05-14T00:57:52.365Z,3.65
2019-05-14T01:00:22.231Z,3.55
2019-05-14T01:02:51.997Z,2.92
2019-05-14T01:05:21.850Z,2.85
2019-05-14T01:07:51.601Z,3.58
2019-05-14T01:10:22.166Z,3.80
2019-05-14T01:12:52.223Z,3.42
2019-05-14T01:15:22.031Z,2.75
2019-05-14T01:17:51.815Z,3.37
2019-05-14T01:20:22.060Z,3.55
2019-05-14T01:22:51.795Z,4.83
2019-05-14T01:25:23.670Z,4.30
2019-05-14T01:27:52.728Z,4.85
2019-05-14T01:30:22.538Z,4.95
2019-05-14T01:32:52.153Z,4.83
2019-05-14T01:35:22.262Z,4.20
2019-05-14T01:37:52.329Z,4.22
2019-05-14T01:40:22.096Z,4.10
2019-05-14T01:42:52.255Z,3.87
2019-05-14T01:45:27.970Z,4.22
2019-05-14T01:47:54.186Z,4.20
2019-05-14T01:50:23.806Z,4.97
2019-05-14T01:52:53.515Z,6.55
2019-05-14T01:55:23.123Z,8.55
2019-05-14T01:57:52.832Z,9.18
2019-05-14T02:00:22.790Z,8.58
2019-05-14T02:02:52.586Z,6.70
2019-05-14T02:05:22.457Z,6.85
2019-05-14T02:07:52.607Z,6.30
2019-05-14T02:10:22.762Z,7.35
2019-05-14T02:12:52.527Z,7.05
2019-05-14T02:15:35.276Z,6.87
2019-05-14T02:17:53.486Z,6.20
2019-05-14T02:20:23.194Z,6.03
2019-05-14T02:22:52.802Z,6.65
2019-05-14T02:25:22.412Z,6.78
2019-05-14T02:27:52.113Z,6.80
2019-05-14T02:30:28.540Z,7.10
2019-05-14T02:32:53.181Z,6.35
2019-05-14T02:35:22.787Z,6.60
2019-05-14T02:37:52.395Z,6.83
2019-05-14T02:40:22.105Z,6.25
2019-05-14T02:42:51.716Z,6.20
2019-05-14T02:45:21.631Z,6.62
2019-05-14T02:47:51.242Z,6.50
2019-05-14T02:50:21.050Z,6.37
2019-05-14T02:52:50.656Z,6.35
2019-05-14T02:55:20.266Z,6.67
2019-05-14T02:57:50.897Z,6.37
2019-05-14T03:00:20.711Z,6.40
2019-05-14T03:02:50.337Z,5.92
2019-05-14T03:05:20.233Z,5.87
2019-05-14T03:07:50.274Z,5.33
2019-05-14T03:10:20.185Z,5.20
2019-05-14T03:12:50.355Z,4.35
2019-05-14T03:15:20.429Z,4.78
2019-05-14T03:17:50.116Z,4.08
2019-05-14T03:20:20.850Z,4.78
2019-05-14T03:23:02.601Z,4.25
2019-05-14T03:25:21.806Z,4.08
2019-05-14T03:27:51.516Z,4.60
2019-05-14T03:30:23.340Z,4.35
2019-05-14T03:32:53.678Z,4.42
2019-05-14T03:35:33.211Z,4.53
2019-05-14T03:37:54.869Z,4.30
2019-05-14T03:40:24.474Z,3.72
2019-05-14T03:42:54.082Z,4.20
2019-05-14T03:45:23.687Z,3.80
2019-05-14T03:47:53.398Z,3.60
2019-05-14T03:51:00.190Z,3.62
2019-05-14T03:53:30.301Z,4.28
2019-05-14T03:56:00.762Z,4.97
2019-05-14T03:58:30.819Z,4.80
2019-05-14T04:01:02.319Z,5.00
2019-05-14T04:03:32.724Z,5.72
2019-05-14T04:06:02.897Z,6.37
2019-05-14T04:08:34.965Z,7.25
2019-05-14T04:11:04.740Z,7.35
2019-05-14T04:13:35.751Z,5.75
2019-05-14T04:16:05.472Z,5.30
2019-05-14T04:18:39.741Z,5.85
2019-05-14T04:21:10.127Z,5.95
2019-05-14T04:23:40.746Z,6.40
2019-05-14T04:26:12.485Z,6.67
2019-05-14T04:28:45.231Z,6.30
2019-05-14T04:31:18.926Z,5.70
2019-05-14T04:33:49.996Z,7.45
2019-05-14T04:36:19.763Z,8.13
2019-05-14T04:38:54.697Z,9.53
2019-05-14T04:41:20.991Z,9.45
2019-05-14T04:43:50.657Z,10.18
2019-05-14T04:46:20.517Z,11.25
2019-05-14T04:48:51.176Z,11.55
2019-05-14T04:51:20.994Z,12.75
2019-05-14T04:53:50.741Z,13.50
2019-05-14T04:56:20.705Z,13.68
2019-05-14T04:58:50.578Z,13.95
2019-05-14T05:01:20.941Z,13.35
2019-05-14T05:03:51.066Z,14.43
2019-05-14T05:06:20.873Z,12.95
2019-05-14T05:08:50.533Z,14.35
2019-05-14T05:11:21.218Z,13.90
2019-05-14T05:13:52.358Z,14.40
2019-05-14T05:16:21.968Z,13.18
2019-05-14T05:18:51.582Z,13.90
2019-05-14T05:21:21.188Z,13.70
2019-05-14T05:23:50.796Z,13.88
2019-05-14T05:26:23.471Z,14.73
2019-05-14T05:29:03.625Z,13.65
2019-05-14T05:31:24.428Z,13.72
2019-05-14T05:33:54.035Z,13.28
2019-05-14T05:36:23.643Z,13.50
2019-05-14T05:38:53.251Z,13.68
2019-05-14T05:41:22.859Z,13.65
2019-05-14T05:43:54.722Z,13.88
2019-05-14T05:46:24.331Z,13.35
2019-05-14T05:48:53.938Z,13.55
2019-05-14T05:51:23.544Z,13.13
2019-05-14T05:53:53.358Z,12.40
2019-05-14T05:56:22.962Z,12.35
2019-05-14T05:58:52.572Z,13.05
2019-05-14T06:01:22.282Z,13.45
2019-05-14T06:03:51.898Z,14.58
2019-05-14T06:06:21.702Z,14.25
2019-05-14T06:08:51.310Z,13.58
2019-05-14T06:11:20.920Z,13.98
2019-05-14T06:13:50.526Z,13.18
2019-05-14T06:16:20.133Z,12.85
2019-05-14T06:18:49.743Z,13.00
2019-05-14T06:21:19.556Z,13.22
2019-05-14T06:23:50.186Z,13.70
2019-05-14T06:26:19.900Z,14.68
2019-05-14T06:28:49.920Z,13.75
2019-05-14T06:31:19.727Z,14.10
2019-05-14T06:33:49.543Z,13.18
2019-05-14T06:36:19.614Z,13.78
2019-05-14T06:38:50.700Z,13.45
2019-05-14T06:41:20.311Z,13.90
2019-05-14T06:43:49.917Z,13.60
2019-05-14T06:46:19.730Z,14.23
2019-05-14T06:48:50.362Z,14.23
2019-05-14T06:51:20.362Z,13.53
2019-05-14T06:53:50.241Z,14.18
2019-05-14T06:56:21.752Z,13.90
2019-05-14T06:58:51.254Z,13.28
2019-05-14T07:01:20.961Z,13.85
2019-05-14T07:03:50.570Z,13.53
2019-05-14T07:06:20.180Z,11.60
2019-05-14T07:08:52.689Z,10.95
2019-05-14T07:11:21.135Z,11.45
2019-05-14T07:13:50.741Z,10.65
2019-05-14T07:16:20.349Z,9.93
2019-05-14T07:18:53.941Z,7.78
2019-05-14T07:21:21.317Z,7.37
2019-05-14T07:23:50.919Z,8.43
2019-05-14T07:26:20.522Z,7.53
2019-05-14T07:28:50.133Z,6.70
2019-05-14T07:31:19.739Z,7.83
2019-05-14T07:33:49.657Z,5.53
2019-05-14T07:36:19.376Z,6.40
2019-05-14T07:38:49.376Z,5.45
2019-05-14T07:41:19.572Z,4.65
2019-05-14T07:43:49.415Z,4.20
2019-05-14T07:46:19.407Z,4.15
2019-05-14T07:49:03.843Z,3.87
2019-05-14T07:51:20.389Z,3.65
2019-05-14T07:53:51.635Z,3.95
2019-05-14T07:56:21.244Z,3.87
2019-05-14T07:58:50.954Z,3.67
2019-05-14T08:01:20.663Z,3.65
2019-05-14T08:03:50.270Z,3.17
2019-05-14T08:06:19.982Z,3.45
2019-05-14T08:08:50.511Z,2.67
2019-05-14T08:11:20.119Z,3.22
2019-05-14T08:13:49.829Z,3.17
2019-05-14T08:16:19.541Z,2.80
2019-05-14T08:18:49.151Z,2.85
2019-05-14T08:21:19.578Z,3.40
2019-05-14T08:23:49.494Z,3.27
2019-05-14T08:26:19.442Z,3.30
2019-05-14T08:28:49.237Z,2.83
2019-05-14T08:31:19.849Z,2.70
2019-05-14T08:33:49.456Z,3.00
2019-05-14T08:36:19.272Z,2.90
2019-05-14T08:38:50.063Z,2.92
2019-05-14T08:41:20.148Z,3.02
2019-05-14T08:43:50.034Z,2.95
2019-05-14T08:46:19.753Z,3.05
2019-05-14T08:48:49.919Z,3.33
2019-05-14T08:51:19.786Z,3.27
2019-05-14T08:53:50.538Z,3.00
2019-05-14T08:56:20.333Z,2.90
2019-05-14T08:58:50.041Z,3.05
2019-05-14T09:01:19.917Z,2.40
2019-05-14T09:03:49.954Z,2.72
2019-05-14T09:06:19.786Z,2.27
2019-05-14T09:08:49.970Z,2.58
2019-05-14T09:11:24.597Z,2.50
2019-05-14T09:13:51.377Z,2.40
2019-05-14T09:16:38.060Z,2.70
2019-05-14T09:18:52.229Z,2.33
2019-05-14T09:21:21.837Z,2.40
2019-05-14T09:23:51.445Z,2.65
2019-05-14T09:26:21.040Z,2.33
2019-05-14T09:28:50.660Z,2.05
2019-05-14T09:31:20.269Z,2.40
2019-05-14T09:33:49.981Z,2.55
2019-05-14T09:36:23.957Z,2.52
2019-05-14T09:38:50.833Z,2.77
2019-05-14T09:41:20.858Z,2.92
2019-05-14T09:43:50.563Z,3.10
2019-05-14T09:46:20.271Z,2.33
2019-05-14T09:48:49.981Z,2.95
2019-05-14T09:51:19.694Z,2.83
2019-05-14T09:53:49.402Z,2.50
2019-05-14T09:56:19.115Z,2.62
2019-05-14T09:58:49.628Z,2.52
2019-05-14T10:01:20.686Z,2.35
2019-05-14T10:03:50.392Z,2.25
2019-05-14T10:06:20.912Z,2.42
2019-05-14T10:08:50.945Z,2.75
2019-05-14T10:11:20.554Z,3.08
2019-05-14T10:13:50.262Z,2.90
2019-05-14T10:16:20.891Z,2.40
2019-05-14T10:18:52.866Z,2.72
2019-05-14T10:21:21.747Z,2.35
2019-05-14T10:23:52.377Z,2.50
2019-05-14T10:26:21.986Z,2.42
2019-05-14T10:28:51.593Z,2.58
2019-05-14T10:31:21.201Z,2.27
2019-05-14T10:33:50.808Z,2.30
2019-05-14T10:36:20.521Z,2.60
2019-05-14T10:38:50.229Z,2.50
2019-05-14T10:41:19.943Z,2.37
2019-05-14T10:43:49.950Z,2.70
2019-05-14T10:46:20.589Z,2.75
2019-05-14T10:48:50.201Z,3.02
2019-05-14T10:51:19.906Z,2.77
2019-05-14T10:53:49.617Z,2.70
2019-05-14T10:56:19.776Z,2.62
2019-05-14T10:58:49.554Z,2.45
2019-05-14T11:01:22.649Z,2.40
2019-05-14T11:03:51.530Z,2.30
2019-05-14T11:06:21.242Z,1.92
2019-05-14T11:08:50.852Z,2.00
2019-05-14T11:11:20.661Z,2.60
2019-05-14T11:13:50.268Z,2.70
2019-05-14T11:16:19.998Z,2.37
2019-05-14T11:18:50.177Z,2.52
2019-05-14T11:21:26.356Z,2.77
2019-05-14T11:23:51.264Z,2.55
2019-05-14T11:26:20.868Z,2.45
2019-05-14T11:28:50.579Z,2.33
2019-05-14T11:31:20.289Z,2.37
2019-05-14T11:33:50.078Z,2.40
2019-05-14T11:36:20.016Z,2.58
2019-05-14T11:38:50.956Z,2.62
2019-05-14T11:41:20.769Z,2.42
2019-05-14T11:43:50.385Z,2.52
2019-05-14T11:46:33.502Z,2.50
2019-05-14T11:48:51.338Z,2.92
2019-05-14T11:51:53.079Z,2.77
2019-05-14T11:53:52.188Z,2.15
2019-05-14T11:56:21.795Z,2.33
2019-05-14T11:58:51.404Z,2.72
2019-05-14T12:01:21.113Z,1.92
2019-05-14T12:03:50.823Z,2.20
2019-05-14T12:06:20.535Z,2.40
2019-05-14T12:08:50.141Z,1.85
2019-05-14T12:11:19.757Z,2.10
2019-05-14T12:13:49.458Z,2.55
2019-05-14T12:16:19.170Z,2.42
2019-05-14T12:18:48.868Z,2.40
2019-05-14T12:21:18.489Z,2.17
2019-05-14T12:23:48.095Z,1.95
2019-05-14T12:26:19.064Z,2.42
2019-05-14T12:28:49.534Z,2.22
2019-05-14T12:31:19.381Z,2.08
2019-05-14T12:33:50.019Z,1.98
2019-05-14T12:36:20.233Z,2.10
2019-05-14T12:38:49.883Z,2.17
2019-05-14T12:41:19.696Z,1.72
2019-05-14T12:43:49.464Z,2.00
2019-05-14T12:46:20.375Z,1.98
2019-05-14T12:48:50.115Z,2.27
2019-05-14T12:51:19.724Z,1.90
2019-05-14T12:53:49.537Z,2.20
2019-05-14T12:56:19.166Z,2.92
2019-05-14T12:58:49.774Z,2.15
2019-05-14T13:01:19.960Z,2.12
2019-05-14T13:03:50.122Z,1.95
2019-05-14T13:06:19.827Z,1.92
2019-05-14T13:08:49.501Z,2.20
2019-05-14T13:11:19.455Z,2.10
2019-05-14T13:13:49.322Z,1.85
2019-05-14T13:16:19.615Z,2.72
2019-05-14T13:18:50.115Z,2.30
2019-05-14T13:21:20.137Z,2.40
2019-05-14T13:23:49.745Z,2.83
2019-05-14T13:26:19.455Z,2.12
2019-05-14T13:28:50.789Z,2.67
2019-05-14T13:31:20.312Z,2.40
2019-05-14T13:33:49.917Z,2.20
2019-05-14T13:36:20.739Z,1.90
2019-05-14T13:38:51.597Z,2.42
2019-05-14T13:41:21.710Z,2.70
2019-05-14T13:43:51.323Z,2.30
2019-05-14T13:46:22.158Z,2.70
2019-05-14T13:48:51.764Z,2.55
2019-05-14T13:51:21.377Z,2.85
2019-05-14T13:53:52.953Z,2.25
2019-05-14T13:56:22.636Z,2.30
2019-05-14T13:58:52.345Z,2.72
2019-05-14T14:01:22.168Z,2.87
2019-05-14T14:04:03.619Z,2.22
2019-05-14T14:06:23.112Z,2.08
2019-05-14T14:08:52.826Z,2.37
2019-05-14T14:11:22.433Z,2.58
2019-05-14T14:13:52.040Z,2.30
2019-05-14T14:16:21.752Z,2.12
2019-05-14T14:18:51.463Z,2.10
2019-05-14T14:21:21.171Z,2.22
2019-05-14T14:23:50.881Z,2.60
2019-05-14T14:26:20.694Z,2.47
2019-05-14T14:28:50.407Z,2.37
2019-05-14T14:31:20.026Z,2.37
2019-05-14T14:33:49.652Z,2.37
2019-05-14T14:36:20.211Z,2.20
2019-05-14T14:38:50.077Z,2.35
2019-05-14T14:41:19.905Z,2.50
2019-05-14T14:43:53.642Z,2.40
2019-05-14T14:46:20.733Z,2.40
2019-05-14T14:48:50.352Z,2.20
2019-05-14T14:51:20.152Z,2.60
2019-05-14T14:53:59.221Z,2.33
2019-05-14T14:56:21.222Z,2.47
2019-05-14T14:58:51.851Z,2.30
2019-05-14T15:01:21.553Z,2.25
2019-05-14T15:03:51.365Z,2.35
2019-05-14T15:06:21.387Z,2.75
2019-05-14T15:08:51.201Z,2.12
2019-05-14T15:11:20.907Z,2.42
2019-05-14T15:13:50.616Z,2.30
2019-05-14T15:16:20.501Z,2.52
2019-05-14T15:18:50.242Z,1.77
2019-05-14T15:21:19.852Z,2.33
2019-05-14T15:24:05.939Z,2.20
2019-05-14T15:26:20.807Z,2.40
2019-05-14T15:28:50.428Z,2.50
2019-05-14T15:31:20.024Z,2.10
2019-05-14T15:33:50.892Z,2.30
2019-05-14T15:36:20.875Z,2.27
2019-05-14T15:38:50.488Z,2.12
2019-05-14T15:41:20.680Z,2.05
2019-05-14T15:43:50.415Z,2.25
2019-05-14T15:46:20.230Z,2.00
2019-05-14T15:48:49.837Z,1.90
2019-05-14T15:51:19.895Z,1.95
2019-05-14T15:54:06.373Z,1.75
2019-05-14T15:56:20.915Z,1.47
2019-05-14T15:58:50.526Z,2.05
2019-05-14T16:01:20.235Z,2.10
2019-05-14T16:03:50.967Z,1.80
2019-05-14T16:06:20.676Z,1.90
2019-05-14T16:08:50.285Z,1.98
2019-05-14T16:11:19.995Z,2.70
2019-05-14T16:13:49.704Z,1.90
2019-05-14T16:16:19.813Z,1.95
2019-05-14T16:18:49.641Z,2.05
2019-05-14T16:21:19.349Z,2.00
2019-05-14T16:23:48.956Z,2.33
2019-05-14T16:26:18.909Z,2.00
2019-05-14T16:28:50.050Z,2.10
2019-05-14T16:31:19.828Z,2.20
2019-05-14T16:33:49.928Z,2.83
2019-05-14T16:36:20.794Z,3.33
2019-05-14T16:38:50.498Z,2.27
2019-05-14T16:41:20.205Z,2.25
2019-05-14T16:43:49.915Z,2.62
2019-05-14T16:46:19.634Z,2.10
2019-05-14T16:48:49.234Z,2.00
2019-05-14T16:51:19.380Z,1.98
2019-05-14T16:53:50.193Z,2.33
2019-05-14T16:56:19.901Z,1.87
2019-05-14T16:58:49.712Z,2.30
2019-05-14T17:01:19.510Z,2.20
2019-05-14T17:03:49.683Z,2.20
2019-05-14T17:06:19.870Z,2.10
2019-05-14T17:08:49.476Z,2.08
2019-05-14T17:11:19.185Z,2.40
2019-05-14T17:13:49.200Z,2.70
2019-05-14T17:16:19.525Z,2.87
2019-05-14T17:18:49.653Z,2.50
2019-05-14T17:21:19.563Z,2.92
2019-05-14T17:23:50.204Z,2.67
2019-05-14T17:26:20.835Z,3.02
2019-05-14T17:28:50.421Z,3.40
2019-05-14T17:31:20.146Z,3.17
2019-05-14T17:33:49.753Z,2.95
2019-05-14T17:36:19.465Z,3.02
2019-05-14T17:38:49.426Z,2.80
2019-05-14T17:41:19.657Z,2.95
2019-05-14T17:43:49.668Z,2.42
2019-05-14T17:46:19.534Z,2.33
2019-05-14T17:48:49.243Z,2.72
2019-05-14T17:51:18.954Z,2.60
2019-05-14T17:53:48.666Z,2.80
2019-05-14T17:56:19.134Z,2.87
2019-05-14T17:58:49.622Z,2.72
2019-05-14T18:01:22.504Z,3.00
2019-05-14T18:03:53.734Z,2.70
2019-05-14T18:06:23.353Z,2.58
2019-05-14T18:08:53.070Z,2.50
2019-05-14T18:11:22.780Z,2.65
2019-05-14T18:13:53.734Z,2.65
2019-05-14T18:16:25.273Z,2.40
2019-05-14T18:18:54.983Z,2.77
2019-05-14T18:21:24.693Z,2.12
2019-05-14T18:23:54.404Z,2.67
2019-05-14T18:26:24.011Z,2.65
2019-05-14T18:28:53.724Z,2.75
2019-05-14T18:31:23.431Z,3.55
2019-05-14T18:33:53.245Z,2.72
2019-05-14T18:36:22.855Z,2.92
2019-05-14T18:38:52.463Z,2.90
2019-05-14T18:41:23.882Z,3.50
2019-05-14T18:43:54.748Z,3.12
2019-05-14T18:46:24.357Z,2.92
2019-05-14T18:48:54.067Z,2.62
2019-05-14T18:51:23.678Z,2.75
2019-05-14T18:53:53.385Z,3.30
2019-05-14T18:56:24.409Z,3.25
2019-05-14T18:58:54.891Z,3.00
2019-05-14T19:01:24.565Z,3.25
2019-05-14T19:03:54.377Z,2.98
2019-05-14T19:06:28.466Z,3.50
2019-05-14T19:08:58.309Z,3.30
2019-05-14T19:11:28.158Z,3.00
2019-05-14T19:13:58.958Z,3.50
2019-05-14T19:16:29.583Z,3.70
2019-05-14T19:19:00.727Z,3.70
2019-05-14T19:21:31.669Z,3.37
2019-05-14T19:24:01.274Z,3.25
2019-05-14T19:26:36.765Z,3.02
2019-05-14T19:29:08.668Z,3.45
2019-05-14T19:31:40.030Z,3.10
2019-05-14T19:34:11.177Z,2.98
2019-05-14T19:36:41.809Z,3.10
2019-05-14T19:39:11.522Z,3.62
2019-05-14T19:41:41.225Z,3.30
2019-05-14T19:44:10.941Z,4.20
2019-05-14T19:46:40.547Z,2.87
2019-05-14T19:49:10.155Z,3.20
2019-05-14T19:51:39.863Z,4.20
2019-05-14T19:54:11.416Z,3.55
2019-05-14T19:56:52.396Z,3.65
2019-05-14T19:59:12.578Z,4.30
2019-05-14T20:01:42.186Z,3.77
2019-05-14T20:04:12.312Z,4.03
2019-05-14T20:06:42.925Z,3.77
2019-05-14T20:09:13.162Z,3.95
2019-05-14T20:11:42.868Z,3.85
2019-05-14T20:14:12.479Z,4.22
2019-05-14T20:16:42.085Z,4.12
2019-05-14T20:19:11.797Z,3.75
2019-05-14T20:21:41.410Z,3.62
2019-05-14T20:24:11.013Z,4.10
2019-05-14T20:26:40.621Z,4.20
2019-05-14T20:29:10.946Z,4.22
2019-05-14T20:31:40.761Z,4.03
2019-05-14T20:34:10.468Z,3.80
2019-05-14T20:36:40.079Z,4.00
2019-05-14T20:39:10.810Z,4.20
2019-05-14T20:41:40.623Z,4.15
2019-05-14T20:44:10.230Z,3.55
2019-05-14T20:46:39.838Z,4.12
2019-05-14T20:49:09.959Z,3.75
2019-05-14T20:51:39.565Z,4.17
2019-05-14T20:54:09.180Z,4.53
2019-05-14T20:56:40.208Z,4.40
2019-05-14T20:59:10.236Z,4.62
2019-05-14T21:01:41.039Z,4.72
2019-05-14T21:04:10.648Z,4.70
2019-05-14T21:06:41.874Z,5.58
2019-05-14T21:09:13.181Z,6.53
2019-05-14T21:11:42.573Z,4.67
2019-05-14T21:14:12.147Z,5.03
2019-05-14T21:16:41.892Z,5.78
2019-05-14T21:19:11.469Z,5.55
2019-05-14T21:21:41.106Z,4.60
2019-05-14T21:24:11.739Z,4.35
2019-05-14T21:26:41.346Z,4.58
2019-05-14T21:29:10.888Z,3.83
2019-05-14T21:31:40.665Z,3.98
2019-05-14T21:34:10.273Z,4.37
2019-05-14T21:36:41.490Z,4.58
2019-05-14T21:39:11.096Z,3.85
2019-05-14T21:41:40.704Z,4.45
2019-05-14T21:44:10.271Z,5.25
2019-05-14T21:46:40.072Z,4.83
2019-05-14T21:49:11.137Z,5.17
2019-05-14T21:51:40.907Z,4.62
2019-05-14T21:54:10.372Z,4.65
2019-05-14T21:56:40.123Z,4.15
2019-05-14T21:59:09.816Z,4.37
2019-05-14T22:01:39.732Z,4.87
2019-05-14T22:04:11.588Z,4.55
2019-05-14T22:06:41.406Z,4.75
2019-05-14T22:09:12.466Z,4.08
2019-05-14T22:11:41.935Z,4.10
2019-05-14T22:14:11.652Z,4.50
2019-05-14T22:16:41.183Z,4.42
2019-05-14T22:19:10.647Z,4.05
2019-05-14T22:21:41.783Z,4.40
2019-05-14T22:24:11.749Z,4.33
2019-05-14T22:26:42.349Z,4.30
2019-05-14T22:29:12.820Z,4.05
2019-05-14T22:31:43.384Z,3.70
2019-05-14T22:34:13.048Z,3.80
2019-05-14T22:36:42.655Z,4.03
2019-05-14T22:39:12.204Z,3.98
2019-05-14T22:41:41.699Z,3.90
2019-05-14T22:44:11.375Z,3.72
2019-05-14T22:46:40.955Z,3.35
2019-05-14T22:49:10.559Z,3.70
2019-05-14T22:51:40.200Z,3.50
2019-05-14T22:54:09.821Z,3.80
2019-05-14T22:56:39.279Z,3.90
2019-05-14T22:59:08.887Z,4.03
2019-05-14T23:01:38.831Z,3.62
2019-05-14T23:04:09.570Z,3.37
2019-05-14T23:06:39.059Z,3.20
2019-05-14T23:09:09.160Z,3.67
2019-05-14T23:11:38.835Z,3.58
2019-05-14T23:14:08.621Z,3.80
2019-05-14T23:16:41.790Z,2.77
2019-05-14T23:19:09.470Z,3.00
2019-05-14T23:21:39.292Z,3.05
2019-05-14T23:24:09.337Z,3.67
2019-05-14T23:26:38.986Z,3.40
2019-05-14T23:29:08.486Z,3.25
2019-05-14T23:31:38.600Z,3.75
2019-05-14T23:34:08.448Z,3.50
2019-05-14T23:36:38.883Z,3.52
2019-05-14T23:39:09.078Z,2.83
2019-05-14T23:41:39.117Z,3.65
2019-05-14T23:44:08.727Z,3.55
2019-05-14T23:46:39.355Z,3.30
2019-05-14T23:49:09.066Z,4.10
2019-05-14T23:51:38.659Z,5.15
2019-05-14T23:54:08.901Z,3.50
2019-05-14T23:56:39.520Z,3.50
2019-05-14T23:59:09.497Z,3.52
